createdAt,value
2019-01-27T00:02:14.102Z,96720.45
2019-01-27T00:04:52.311Z,96710.31
2019-01-27T00:07:26.165Z,96699.82
2019-01-27T00:09:57.759Z,96697.83
2019-01-27T00:12:30.797Z,96693.09
2019-01-27T00:15:07.451Z,96689.92
2019-01-27T00:17:38.976Z,96670.14
2019-01-27T00:20:16.484Z,96674.62
2019-01-27T00:22:49.969Z,96670.17
2019-01-27T00:25:21.530Z,96664.44
2019-01-27T00:27:54.780Z,96660.81
2019-01-27T00:30:29.466Z,96654.68
2019-01-27T00:33:03.868Z,96643.73
2019-01-27T00:35:37.494Z,96639.62
2019-01-27T00:38:09.046Z,96631.65
2019-01-27T00:40:40.566Z,96618.95
2019-01-27T00:43:14.417Z,96614.97
2019-01-27T00:45:47.649Z,96608.61
2019-01-27T00:48:19.196Z,96594.95
2019-01-27T00:50:50.777Z,96597.20
2019-01-27T00:53:23.650Z,96591.80
2019-01-27T00:55:58.120Z,96581.90
2019-01-27T00:58:29.697Z,96574.02
2019-01-27T01:01:03.222Z,96570.95
2019-01-27T01:03:38.816Z,96564.02
2019-01-27T01:06:10.410Z,96567.08
2019-01-27T01:08:47.653Z,96567.08
2019-01-27T01:11:21.168Z,96553.78
2019-01-27T01:13:54.555Z,96544.70
2019-01-27T01:16:27.196Z,96542.36
2019-01-27T01:19:00.374Z,96537.06
2019-01-27T01:21:31.908Z,96528.92
2019-01-27T01:24:05.815Z,96527.76
2019-01-27T01:26:38.816Z,96516.47
2019-01-27T01:29:10.400Z,96514.94
2019-01-27T01:31:45.088Z,96508.47
2019-01-27T01:34:16.629Z,96514.00
2019-01-27T01:36:48.199Z,96505.98
2019-01-27T01:39:19.758Z,96502.69
2019-01-27T01:41:51.302Z,96485.75
2019-01-27T01:44:25.527Z,96495.39
2019-01-27T01:47:02.228Z,96478.56
2019-01-27T01:49:35.992Z,96476.91
2019-01-27T01:52:13.859Z,96470.07
2019-01-27T01:54:43.958Z,96468.98
2019-01-27T01:57:22.892Z,96454.98
2019-01-27T01:59:57.167Z,96461.09
2019-01-27T02:02:28.729Z,96453.08
2019-01-27T02:05:00.279Z,96455.44
2019-01-27T02:07:37.623Z,96449.92
2019-01-27T02:10:11.359Z,96438.15
2019-01-27T02:12:42.994Z,96421.31
2019-01-27T02:16:08.459Z,96416.46
2019-01-27T02:18:43.281Z,96407.19
2019-01-27T02:21:14.819Z,96395.85
2019-01-27T02:23:46.360Z,96398.08
2019-01-27T02:26:20.985Z,96383.95
2019-01-27T02:28:52.510Z,96384.88
2019-01-27T02:31:24.042Z,96373.58
2019-01-27T02:33:58.009Z,96373.95
2019-01-27T02:36:41.163Z,96369.22
2019-01-27T02:39:12.706Z,96359.58
2019-01-27T02:41:44.231Z,96352.62
2019-01-27T02:44:15.772Z,96347.31
2019-01-27T02:46:48.803Z,96340.46
2019-01-27T02:49:21.335Z,96339.05
2019-01-27T02:51:52.823Z,96335.66
2019-01-27T02:54:24.395Z,96333.31
2019-01-27T02:56:55.927Z,96328.40
2019-01-27T02:59:27.478Z,96320.98
2019-01-27T03:01:59.011Z,96320.50
2019-01-27T03:04:30.555Z,96311.19
2019-01-27T03:07:18.385Z,96304.52
2019-01-27T03:09:49.913Z,96296.25
2019-01-27T03:12:21.489Z,96292.73
2019-01-27T03:14:53.053Z,96281.22
2019-01-27T03:17:24.675Z,96276.95
2019-01-27T03:19:56.202Z,96277.64
2019-01-27T03:22:27.819Z,96270.97
2019-01-27T03:24:59.357Z,96263.45
2019-01-27T03:27:30.905Z,96262.78
2019-01-27T03:30:02.420Z,96258.41
2019-01-27T03:32:33.995Z,96255.03
2019-01-27T03:35:06.500Z,96253.66
2019-01-27T03:37:38.051Z,96246.95
2019-01-27T03:40:11.312Z,96245.64
2019-01-27T03:42:42.856Z,96246.27
2019-01-27T03:45:15.661Z,96240.39
2019-01-27T03:47:47.251Z,96242.12
2019-01-27T03:50:18.914Z,96227.87
2019-01-27T03:52:50.593Z,96231.61
2019-01-27T03:55:22.139Z,96222.97
2019-01-27T03:57:53.674Z,96218.40
2019-01-27T04:00:25.619Z,96216.84
2019-01-27T04:02:57.172Z,96216.47
2019-01-27T04:05:28.712Z,96215.85
2019-01-27T04:08:00.223Z,96216.49
2019-01-27T04:10:32.711Z,96207.55
2019-01-27T04:13:05.539Z,96206.13
2019-01-27T04:15:37.083Z,96206.23
2019-01-27T04:18:08.604Z,96197.32
2019-01-27T04:20:40.161Z,96188.00
2019-01-27T04:23:12.736Z,96185.25
2019-01-27T04:25:44.293Z,96192.28
2019-01-27T04:28:15.840Z,96176.47
2019-01-27T04:30:47.374Z,96162.70
2019-01-27T04:33:19.334Z,96158.20
2019-01-27T04:35:50.902Z,96165.20
2019-01-27T04:38:22.531Z,96158.11
2019-01-27T04:40:54.070Z,96148.00
2019-01-27T04:43:25.977Z,96140.23
2019-01-27T04:45:57.519Z,96136.02
2019-01-27T04:48:29.079Z,96128.80
2019-01-27T04:51:00.736Z,96132.48
2019-01-27T04:53:33.322Z,96137.21
2019-01-27T04:56:06.358Z,96119.20
2019-01-27T04:58:37.897Z,96116.48
2019-01-27T05:01:09.471Z,96113.77
2019-01-27T05:04:16.431Z,96104.88
2019-01-27T05:06:48.108Z,96091.92
2019-01-27T05:09:20.625Z,96092.02
2019-01-27T05:11:52.156Z,96084.16
2019-01-27T05:14:23.714Z,96078.52
2019-01-27T05:16:55.250Z,96082.68
2019-01-27T05:19:29.528Z,96070.80
2019-01-27T05:22:01.068Z,96071.38
2019-01-27T05:24:32.620Z,96072.94
2019-01-27T05:27:04.164Z,96075.91
2019-01-27T05:29:35.727Z,96073.91
2019-01-27T05:32:07.258Z,96072.34
2019-01-27T05:34:40.277Z,96071.45
2019-01-27T05:37:11.801Z,96069.56
2019-01-27T05:39:43.344Z,96060.41
2019-01-27T05:42:14.867Z,96057.72
2019-01-27T05:44:47.387Z,96053.65
2019-01-27T05:47:18.916Z,96044.89
2019-01-27T05:49:50.453Z,96043.46
2019-01-27T05:52:22.013Z,96043.55
2019-01-27T05:54:53.728Z,96045.75
2019-01-27T05:57:25.263Z,96039.28
2019-01-27T05:59:56.794Z,96043.93
2019-01-27T06:02:28.351Z,96033.56
2019-01-27T06:04:59.901Z,96033.84
2019-01-27T06:07:31.455Z,96027.58
2019-01-27T06:10:03.078Z,96019.05
2019-01-27T06:12:34.636Z,96017.61
2019-01-27T06:15:07.492Z,96014.89
2019-01-27T06:17:39.036Z,96018.70
2019-01-27T06:20:12.805Z,96017.00
2019-01-27T06:22:45.991Z,96011.33
2019-01-27T06:25:17.890Z,96015.16
2019-01-27T06:27:49.443Z,96020.22
2019-01-27T06:30:25.840Z,96008.50
2019-01-27T06:33:02.942Z,96012.78
2019-01-27T06:35:34.504Z,96007.47
2019-01-27T06:38:06.211Z,96005.73
2019-01-27T06:40:37.734Z,96000.96
2019-01-27T06:43:09.292Z,95994.83
2019-01-27T06:45:40.847Z,95990.23
2019-01-27T06:48:15.286Z,95992.16
2019-01-27T06:50:46.837Z,95980.28
2019-01-27T06:53:18.408Z,95980.41
2019-01-27T06:55:49.959Z,95979.06
2019-01-27T06:58:24.121Z,95980.14
2019-01-27T07:01:20.562Z,95970.31
2019-01-27T07:04:09.651Z,95967.81
2019-01-27T07:06:47.957Z,95970.35
2019-01-27T07:09:30.210Z,95968.92
2019-01-27T07:12:19.059Z,95963.66
2019-01-27T07:15:24.565Z,95957.32
2019-01-27T07:18:24.315Z,95955.62
2019-01-27T07:21:08.274Z,95954.54
2019-01-27T07:24:01.846Z,95956.47
2019-01-27T07:26:45.939Z,95954.51
2019-01-27T07:29:37.701Z,95945.71
2019-01-27T07:32:26.735Z,95942.31
2019-01-27T07:35:29.079Z,95937.05
2019-01-27T07:38:12.024Z,95937.80
2019-01-27T07:40:52.303Z,95947.55
2019-01-27T07:43:40.128Z,95942.17
2019-01-27T07:46:33.565Z,95938.83
2019-01-27T07:49:16.162Z,95931.68
2019-01-27T07:52:00.189Z,95931.14
2019-01-27T07:54:59.753Z,95925.97
2019-01-27T07:57:43.025Z,95917.70
2019-01-27T08:00:30.731Z,95920.91
2019-01-27T08:03:24.277Z,95917.29
2019-01-27T08:06:14.736Z,95910.27
2019-01-27T08:08:56.674Z,95910.69
2019-01-27T08:11:45.699Z,95910.34
2019-01-27T08:14:33.144Z,95910.00
2019-01-27T08:17:22.236Z,95906.16
2019-01-27T08:20:06.755Z,95902.29
2019-01-27T08:23:10.453Z,95908.98
2019-01-27T08:26:00.921Z,95908.16
2019-01-27T08:28:40.879Z,95899.20
2019-01-27T08:31:34.101Z,95907.77
2019-01-27T08:34:27.214Z,95898.62
2019-01-27T08:37:06.297Z,95892.34
2019-01-27T08:39:43.263Z,95893.25
2019-01-27T08:42:32.637Z,95890.52
2019-01-27T08:45:25.989Z,95886.21
2019-01-27T08:47:57.567Z,95891.19
2019-01-27T08:50:29.091Z,95890.77
2019-01-27T08:53:04.810Z,95882.92
2019-01-27T08:55:36.378Z,95879.73
2019-01-27T08:58:10.710Z,95881.83
2019-01-27T09:00:46.847Z,95869.42
2019-01-27T09:03:30.279Z,95861.12
2019-01-27T09:06:23.669Z,95868.05
2019-01-27T09:09:17.204Z,95851.03
2019-01-27T09:11:56.136Z,95841.27
2019-01-27T09:14:46.576Z,95846.03
2019-01-27T09:17:43.715Z,95846.67
2019-01-27T09:20:25.879Z,95847.52
2019-01-27T09:23:16.391Z,95846.20
2019-01-27T09:25:53.890Z,95843.45
2019-01-27T09:28:48.661Z,95845.05
2019-01-27T09:31:38.077Z,95846.40
2019-01-27T09:34:20.743Z,95849.28
2019-01-27T09:37:26.557Z,95838.33
2019-01-27T09:40:20.330Z,95846.47
2019-01-27T09:43:05.065Z,95840.44
2019-01-27T09:46:05.396Z,95838.55
2019-01-27T09:49:03.115Z,95837.84
2019-01-27T09:51:43.199Z,95830.52
2019-01-27T09:54:32.547Z,95836.47
2019-01-27T09:57:26.138Z,95828.91
2019-01-27T10:00:08.418Z,95833.88
2019-01-27T10:02:44.574Z,95832.35
2019-01-27T10:05:33.683Z,95829.32
2019-01-27T10:08:36.296Z,95832.50
2019-01-27T10:11:39.184Z,95824.47
2019-01-27T10:14:20.050Z,95810.82
2019-01-27T10:17:09.345Z,95811.86
2019-01-27T10:19:58.686Z,95800.16
2019-01-27T10:22:45.970Z,95796.95
2019-01-27T10:25:34.978Z,95789.11
2019-01-27T10:28:18.503Z,95786.50
2019-01-27T10:31:08.928Z,95792.81
2019-01-27T10:34:01.767Z,95784.47
2019-01-27T10:36:45.477Z,95792.02
2019-01-27T10:39:40.396Z,95785.70
2019-01-27T10:42:20.319Z,95784.70
2019-01-27T10:45:00.919Z,95771.28
2019-01-27T10:47:47.025Z,95774.58
2019-01-27T10:50:38.349Z,95770.37
2019-01-27T10:53:21.909Z,95768.03
2019-01-27T10:56:19.520Z,95763.73
2019-01-27T10:59:01.879Z,95760.38
2019-01-27T11:01:51.334Z,95756.18
2019-01-27T11:04:39.999Z,95753.97
2019-01-27T11:07:22.081Z,95747.81
2019-01-27T11:10:03.551Z,95743.98
2019-01-27T11:12:51.422Z,95737.56
2019-01-27T11:15:40.485Z,95724.48
2019-01-27T11:18:32.081Z,95729.28
2019-01-27T11:21:30.252Z,95714.38
2019-01-27T11:24:39.192Z,95714.22
2019-01-27T11:27:33.140Z,95707.87
2019-01-27T11:30:28.811Z,95693.72
2019-01-27T11:33:19.349Z,95688.48
2019-01-27T11:35:59.553Z,95686.36
2019-01-27T11:38:49.032Z,95690.20
2019-01-27T11:41:51.849Z,95690.83
2019-01-27T11:44:32.342Z,95681.48
2019-01-27T11:47:38.204Z,95675.41
2019-01-27T11:50:18.586Z,95669.56
2019-01-27T11:52:54.070Z,95671.32
2019-01-27T11:55:25.651Z,95668.88
2019-01-27T11:57:57.224Z,95657.06
2019-01-27T12:00:34.820Z,95659.04
2019-01-27T12:03:06.527Z,95649.81
2019-01-27T12:05:38.101Z,95644.77
2019-01-27T12:08:12.550Z,95639.60
2019-01-27T12:10:45.315Z,95630.26
2019-01-27T12:13:16.877Z,95628.67
2019-01-27T12:15:48.489Z,95617.30
2019-01-27T12:18:20.054Z,95620.27
2019-01-27T12:20:51.663Z,95615.21
2019-01-27T12:23:24.509Z,95617.34
2019-01-27T12:25:56.083Z,95624.80
2019-01-27T12:28:27.644Z,95622.86
2019-01-27T12:30:59.258Z,95617.82
2019-01-27T12:33:30.799Z,95619.62
2019-01-27T12:36:05.709Z,95614.40
2019-01-27T12:38:37.345Z,95622.45
2019-01-27T12:41:11.890Z,95623.69
2019-01-27T12:43:44.923Z,95607.57
2019-01-27T12:46:18.147Z,95615.97
2019-01-27T12:48:52.058Z,95607.33
2019-01-27T12:51:26.023Z,95611.13
2019-01-27T12:53:57.583Z,95605.62
2019-01-27T12:56:29.122Z,95591.81
2019-01-27T12:59:12.446Z,95604.55
2019-01-27T13:01:43.111Z,95599.06
2019-01-27T13:04:15.048Z,95595.02
2019-01-27T13:06:48.839Z,95605.39
2019-01-27T13:09:22.068Z,95596.48
2019-01-27T13:11:53.670Z,95605.76
2019-01-27T13:14:27.824Z,95594.05
2019-01-27T13:17:02.413Z,95594.56
2019-01-27T13:19:35.082Z,95589.34
2019-01-27T13:22:06.751Z,95597.59
2019-01-27T13:24:39.668Z,95586.70
2019-01-27T13:27:13.990Z,95581.63
2019-01-27T13:29:46.631Z,95584.22
2019-01-27T13:32:20.948Z,95576.50
2019-01-27T13:34:56.279Z,95574.20
2019-01-27T13:37:25.799Z,95570.30
2019-01-27T13:40:00.253Z,95566.55
2019-01-27T13:42:31.868Z,95566.03
2019-01-27T13:45:03.447Z,95559.83
2019-01-27T13:47:35.026Z,95565.98
2019-01-27T13:50:11.713Z,95560.47
2019-01-27T13:52:51.049Z,95555.46
2019-01-27T13:55:28.969Z,95558.22
2019-01-27T13:58:00.737Z,95554.34
2019-01-27T14:00:36.532Z,95552.39
2019-01-27T14:03:08.247Z,95547.17
2019-01-27T14:05:42.095Z,95546.20
2019-01-27T14:08:17.434Z,95542.16
2019-01-27T14:10:50.620Z,95541.17
2019-01-27T14:13:22.390Z,95541.95
2019-01-27T14:15:55.137Z,95536.69
2019-01-27T14:18:29.774Z,95536.05
2019-01-27T14:21:03.833Z,95539.45
2019-01-27T14:23:36.456Z,95544.83
2019-01-27T14:26:08.100Z,95539.32
2019-01-27T14:28:39.717Z,95537.87
2019-01-27T14:31:13.627Z,95531.87
2019-01-27T14:33:45.239Z,95540.34
2019-01-27T14:36:16.752Z,95533.52
2019-01-27T14:38:52.903Z,95533.89
2019-01-27T14:41:24.525Z,95535.05
2019-01-27T14:43:56.351Z,95535.37
2019-01-27T14:46:29.530Z,95532.59
2019-01-27T14:49:01.168Z,95535.81
2019-01-27T14:51:32.737Z,95530.91
2019-01-27T14:54:04.520Z,95535.14
2019-01-27T14:56:38.176Z,95523.14
2019-01-27T14:59:10.519Z,95526.36
2019-01-27T15:01:47.538Z,95527.97
2019-01-27T15:04:19.092Z,95530.56
2019-01-27T15:06:53.759Z,95523.73
2019-01-27T15:09:27.670Z,95522.77
2019-01-27T15:11:59.285Z,95528.77
2019-01-27T15:14:33.975Z,95522.31
2019-01-27T15:17:09.506Z,95517.58
2019-01-27T15:19:45.481Z,95517.21
2019-01-27T15:22:17.024Z,95511.03
2019-01-27T15:24:48.622Z,95515.94
2019-01-27T15:27:23.352Z,95510.09
2019-01-27T15:30:03.805Z,95512.72
2019-01-27T15:32:36.670Z,95511.91
2019-01-27T15:35:10.416Z,95512.09
2019-01-27T15:37:42.076Z,95504.95
2019-01-27T15:40:17.822Z,95509.34
2019-01-27T15:42:49.448Z,95507.39
2019-01-27T15:45:24.536Z,95511.13
2019-01-27T15:48:01.869Z,95498.77
2019-01-27T15:50:36.490Z,95502.97
2019-01-27T15:53:09.367Z,95508.38
2019-01-27T15:55:43.397Z,95514.06
2019-01-27T15:58:14.977Z,95513.73
2019-01-27T16:00:49.605Z,95501.31
2019-01-27T16:03:21.448Z,95501.78
2019-01-27T16:05:54.276Z,95494.98
2019-01-27T16:08:25.848Z,95495.94
2019-01-27T16:10:57.449Z,95494.80
2019-01-27T16:13:30.837Z,95495.60
2019-01-27T16:16:02.573Z,95500.15
2019-01-27T16:18:38.353Z,95502.09
2019-01-27T16:21:14.371Z,95494.61
2019-01-27T16:23:51.946Z,95489.23
2019-01-27T16:26:23.595Z,95486.48
2019-01-27T16:28:55.256Z,95489.89
2019-01-27T16:32:04.574Z,95488.77
2019-01-27T16:34:38.829Z,95488.13
2019-01-27T16:37:10.413Z,95485.86
2019-01-27T16:39:41.968Z,95483.73
2019-01-27T16:42:16.626Z,95484.66
2019-01-27T16:44:51.169Z,95478.02
2019-01-27T16:47:22.727Z,95477.65
2019-01-27T16:49:54.282Z,95479.07
2019-01-27T16:52:27.696Z,95475.21
2019-01-27T16:54:59.247Z,95478.45
2019-01-27T16:57:30.818Z,95482.69
2019-01-27T17:00:02.410Z,95477.44
2019-01-27T17:02:34.282Z,95476.78
2019-01-27T17:05:07.957Z,95486.48
2019-01-27T17:07:39.598Z,95474.50
2019-01-27T17:10:13.071Z,95483.73
2019-01-27T17:12:47.870Z,95482.94
2019-01-27T17:15:19.813Z,95484.84
2019-01-27T17:17:51.412Z,95490.66
2019-01-27T17:20:25.816Z,95489.17
2019-01-27T17:22:56.447Z,95491.04
2019-01-27T17:25:33.937Z,95489.66
2019-01-27T17:28:07.402Z,95495.64
2019-01-27T17:30:38.988Z,95493.84
2019-01-27T17:33:10.544Z,95492.31
2019-01-27T17:35:42.137Z,95500.24
2019-01-27T17:38:13.700Z,95505.23
2019-01-27T17:40:45.400Z,95497.40
2019-01-27T17:43:16.974Z,95509.33
2019-01-27T17:45:48.558Z,95514.16
2019-01-27T17:48:20.279Z,95517.39
2019-01-27T17:50:51.872Z,95511.50
2019-01-27T17:53:23.535Z,95516.88
2019-01-27T17:55:55.110Z,95514.73
2019-01-27T17:58:54.607Z,95507.70
2019-01-27T18:02:11.571Z,95519.08
2019-01-27T18:05:01.150Z,95512.75
2019-01-27T18:07:50.301Z,95517.36
2019-01-27T18:10:46.517Z,95521.83
2019-01-27T18:13:52.382Z,95523.84
2019-01-27T18:16:26.711Z,95519.31
2019-01-27T18:18:58.287Z,95516.45
2019-01-27T18:21:29.949Z,95521.27
2019-01-27T18:24:01.879Z,95518.48
2019-01-27T18:26:36.458Z,95513.64
2019-01-27T18:29:11.057Z,95518.83
2019-01-27T18:31:50.118Z,95522.80
2019-01-27T18:34:24.760Z,95520.19
2019-01-27T18:37:00.933Z,95520.19
2019-01-27T18:39:40.084Z,95517.63
2019-01-27T18:42:15.651Z,95526.03
2019-01-27T18:44:49.874Z,95527.62
2019-01-27T18:47:21.450Z,95527.91
2019-01-27T18:49:53.052Z,95532.59
2019-01-27T18:52:31.291Z,95539.08
2019-01-27T18:55:21.785Z,95539.34
2019-01-27T18:58:13.004Z,95541.58
2019-01-27T19:01:11.483Z,95544.46
2019-01-27T19:04:06.831Z,95549.13
2019-01-27T19:07:00.039Z,95550.65
2019-01-27T19:09:47.502Z,95550.28
2019-01-27T19:12:49.211Z,95548.48
2019-01-27T19:15:45.699Z,95546.82
2019-01-27T19:18:37.081Z,95552.77
2019-01-27T19:21:14.942Z,95553.91
2019-01-27T19:23:58.335Z,95558.88
2019-01-27T19:26:45.119Z,95559.83
2019-01-27T19:29:37.208Z,95571.69
2019-01-27T19:32:36.502Z,95572.05
2019-01-27T19:35:37.060Z,95572.05
2019-01-27T19:38:30.651Z,95571.44
2019-01-27T19:41:21.963Z,95578.09
2019-01-27T19:44:27.581Z,95583.38
2019-01-27T19:47:18.194Z,95585.61
2019-01-27T19:50:03.463Z,95597.61
2019-01-27T19:52:59.201Z,95595.75
2019-01-27T19:55:41.885Z,95602.92
2019-01-27T19:58:33.768Z,95608.80
2019-01-27T20:01:24.721Z,95612.33
2019-01-27T20:04:21.693Z,95620.09
2019-01-27T20:07:19.543Z,95621.31
2019-01-27T20:10:28.196Z,95623.91
2019-01-27T20:13:11.003Z,95632.43
2019-01-27T20:16:02.960Z,95636.70
2019-01-27T20:18:52.192Z,95647.59
2019-01-27T20:21:58.039Z,95655.21
2019-01-27T20:24:48.792Z,95659.12
2019-01-27T20:27:28.131Z,95670.63
2019-01-27T20:30:27.900Z,95674.84
2019-01-27T20:33:07.861Z,95669.83
2019-01-27T20:36:15.259Z,95689.89
2019-01-27T20:39:04.090Z,95695.80
2019-01-27T20:41:58.525Z,95695.21
2019-01-27T20:44:47.503Z,95706.16
2019-01-27T20:47:44.391Z,95711.42
2019-01-27T20:50:23.809Z,95717.54
2019-01-27T20:53:08.795Z,95721.70
2019-01-27T20:56:09.536Z,95719.66
2019-01-27T20:59:11.633Z,95727.36
2019-01-27T21:02:06.936Z,95730.27
2019-01-27T21:04:57.359Z,95732.59
2019-01-27T21:07:40.730Z,95748.78
2019-01-27T21:10:34.561Z,95753.88
2019-01-27T21:13:27.140Z,95760.96
2019-01-27T21:16:17.931Z,95768.23
2019-01-27T21:19:01.604Z,95781.50
2019-01-27T21:21:36.187Z,95789.44
2019-01-27T21:24:09.200Z,95798.48
2019-01-27T21:26:41.872Z,95802.72
2019-01-27T21:29:13.416Z,95805.98
2019-01-27T21:31:47.753Z,95813.06
2019-01-27T21:34:23.590Z,95813.16
2019-01-27T21:36:56.202Z,95828.93
2019-01-27T21:39:28.144Z,95823.67
2019-01-27T21:42:02.944Z,95828.17
2019-01-27T21:44:34.794Z,95840.38
2019-01-27T21:47:11.879Z,95848.19
2019-01-27T21:49:43.778Z,95851.13
2019-01-27T21:52:15.341Z,95861.20
2019-01-27T21:54:47.278Z,95864.84
2019-01-27T21:57:19.176Z,95870.77
2019-01-27T21:59:56.242Z,95879.77
2019-01-27T22:02:28.108Z,95890.02
2019-01-27T22:05:00.267Z,95894.86
2019-01-27T22:07:34.464Z,95898.61
2019-01-27T22:10:11.116Z,95904.14
2019-01-27T22:12:48.368Z,95908.62
2019-01-27T22:15:22.967Z,95919.06
2019-01-27T22:17:54.810Z,95927.84
2019-01-27T22:20:28.061Z,95935.83
2019-01-27T22:23:01.928Z,95937.84
2019-01-27T22:25:33.791Z,95948.13
2019-01-27T22:28:05.641Z,95952.47
2019-01-27T22:30:39.004Z,95953.41
2019-01-27T22:33:10.929Z,95962.34
2019-01-27T22:35:44.216Z,95969.36
2019-01-27T22:38:16.028Z,95968.91
2019-01-27T22:40:53.831Z,95981.20
2019-01-27T22:43:27.377Z,95983.66
2019-01-27T22:45:59.232Z,95987.77
2019-01-27T22:48:31.106Z,95995.31
2019-01-27T22:51:05.892Z,95998.95
2019-01-27T22:53:39.570Z,96006.78
2019-01-27T22:56:15.558Z,96001.98
2019-01-27T22:58:47.412Z,96012.66
2019-01-27T23:01:20.943Z,96017.00
2019-01-27T23:03:58.446Z,96022.51
2019-01-27T23:06:30.387Z,96025.66
2019-01-27T23:09:05.094Z,96038.20
2019-01-27T23:11:38.358Z,96041.85
2019-01-27T23:14:10.162Z,96050.63
2019-01-27T23:16:44.038Z,96055.08
2019-01-27T23:19:15.528Z,96061.39
2019-01-27T23:21:49.514Z,96062.33
2019-01-27T23:24:21.294Z,96071.97
2019-01-27T23:26:53.114Z,96080.88
2019-01-27T23:29:25.896Z,96087.42
2019-01-27T23:31:57.726Z,96091.18
2019-01-27T23:34:29.550Z,96094.72
2019-01-27T23:37:01.397Z,96093.86
2019-01-27T23:39:33.216Z,96104.78
2019-01-27T23:42:05.037Z,96115.58
2019-01-27T23:44:36.958Z,96115.82
2019-01-27T23:47:08.800Z,96116.53
2019-01-27T23:49:40.610Z,96124.87
2019-01-27T23:52:12.477Z,96122.62
2019-01-27T23:54:44.290Z,96113.36
2019-01-27T23:57:16.149Z,96124.39
2019-01-27T23:59:47.947Z,96121.56
